sensor_id;sensor_type;location;lat;lon;timestamp;P1;durP1;ratioP1;P2;durP2;ratioP2
72517;SDS011;60540;51.178;6.738;2022-10-22T00:01:50;9.00;;;3.70;;
72517;SDS011;60540;51.178;6.738;2022-10-22T00:04:16;8.57;;;3.80;;
72517;SDS011;60540;51.178;6.738;2022-10-22T00:06:41;6.60;;;3.70;;
72517;SDS011;60540;51.178;6.738;2022-10-22T00:09:09;8.73;;;3.42;;
72517;SDS011;60540;51.178;6.738;2022-10-22T00:11:38;6.97;;;3.83;;
72517;SDS011;60540;51.178;6.738;2022-10-22T00:14:04;6.50;;;3.28;;
72517;SDS011;60540;51.178;6.738;2022-10-22T00:16:30;7.45;;;3.20;;
72517;SDS011;60540;51.178;6.738;2022-10-22T00:18:55;7.18;;;3.40;;
72517;SDS011;60540;51.178;6.738;2022-10-22T00:21:21;7.82;;;3.38;;
72517;SDS011;60540;51.178;6.738;2022-10-22T00:23:47;7.10;;;3.33;;
72517;SDS011;60540;51.178;6.738;2022-10-22T00:26:13;6.85;;;3.40;;
72517;SDS011;60540;51.178;6.738;2022-10-22T00:28:38;5.53;;;3.10;;
72517;SDS011;60540;51.178;6.738;2022-10-22T00:31:04;6.05;;;3.72;;
72517;SDS011;60540;51.178;6.738;2022-10-22T00:33:30;10.13;;;3.90;;
72517;SDS011;60540;51.178;6.738;2022-10-22T00:35:56;7.38;;;3.53;;
72517;SDS011;60540;51.178;6.738;2022-10-22T00:38:22;6.70;;;3.05;;
72517;SDS011;60540;51.178;6.738;2022-10-22T00:40:48;8.32;;;3.30;;
72517;SDS011;60540;51.178;6.738;2022-10-22T00:43:14;9.35;;;3.60;;
72517;SDS011;60540;51.178;6.738;2022-10-22T00:45:42;9.10;;;4.30;;
72517;SDS011;60540;51.178;6.738;2022-10-22T00:48:08;8.82;;;3.40;;
72517;SDS011;60540;51.178;6.738;2022-10-22T00:58:20;9.05;;;3.60;;
72517;SDS011;60540;51.178;6.738;2022-10-22T01:00:49;6.88;;;3.60;;
72517;SDS011;60540;51.178;6.738;2022-10-22T01:03:14;7.13;;;3.20;;
72517;SDS011;60540;51.178;6.738;2022-10-22T01:05:42;8.02;;;4.35;;
72517;SDS011;60540;51.178;6.738;2022-10-22T01:08:16;6.47;;;2.90;;
72517;SDS011;60540;51.178;6.738;2022-10-22T01:10:54;6.72;;;3.00;;
72517;SDS011;60540;51.178;6.738;2022-10-22T01:13:32;8.63;;;3.15;;
72517;SDS011;60540;51.178;6.738;2022-10-22T01:16:07;8.18;;;3.00;;
72517;SDS011;60540;51.178;6.738;2022-10-22T01:18:48;10.05;;;3.65;;
72517;SDS011;60540;51.178;6.738;2022-10-22T01:21:35;7.28;;;3.50;;
72517;SDS011;60540;51.178;6.738;2022-10-22T01:24:12;6.53;;;3.50;;
72517;SDS011;60540;51.178;6.738;2022-10-22T01:27:19;5.97;;;3.28;;
72517;SDS011;60540;51.178;6.738;2022-10-22T01:30:07;6.72;;;3.00;;
72517;SDS011;60540;51.178;6.738;2022-10-22T01:32:45;6.43;;;3.17;;
72517;SDS011;60540;51.178;6.738;2022-10-22T01:35:13;6.80;;;2.75;;
72517;SDS011;60540;51.178;6.738;2022-10-22T01:37:47;8.30;;;3.25;;
72517;SDS011;60540;51.178;6.738;2022-10-22T01:40:15;10.18;;;4.80;;
72517;SDS011;60540;51.178;6.738;2022-10-22T01:42:41;6.70;;;3.10;;
72517;SDS011;60540;51.178;6.738;2022-10-22T01:45:11;6.63;;;3.10;;
72517;SDS011;60540;51.178;6.738;2022-10-22T01:47:43;7.03;;;3.38;;
72517;SDS011;60540;51.178;6.738;2022-10-22T01:53:00;8.77;;;3.42;;
72517;SDS011;60540;51.178;6.738;2022-10-22T01:55:42;7.25;;;3.17;;
72517;SDS011;60540;51.178;6.738;2022-10-22T02:06:31;6.78;;;3.53;;
72517;SDS011;60540;51.178;6.738;2022-10-22T02:08:57;7.03;;;3.63;;
72517;SDS011;60540;51.178;6.738;2022-10-22T02:11:23;9.68;;;3.88;;
72517;SDS011;60540;51.178;6.738;2022-10-22T02:13:50;8.40;;;3.70;;
72517;SDS011;60540;51.178;6.738;2022-10-22T02:16:20;5.93;;;3.22;;
72517;SDS011;60540;51.178;6.738;2022-10-22T02:18:48;6.95;;;3.22;;
72517;SDS011;60540;51.178;6.738;2022-10-22T02:21:16;8.02;;;3.55;;
72517;SDS011;60540;51.178;6.738;2022-10-22T02:23:42;11.32;;;3.28;;
72517;SDS011;60540;51.178;6.738;2022-10-22T02:26:28;8.20;;;3.53;;
72517;SDS011;60540;51.178;6.738;2022-10-22T02:29:10;7.22;;;3.30;;
72517;SDS011;60540;51.178;6.738;2022-10-22T02:31:38;6.65;;;2.85;;
72517;SDS011;60540;51.178;6.738;2022-10-22T02:34:09;9.38;;;3.45;;
72517;SDS011;60540;51.178;6.738;2022-10-22T02:36:38;6.00;;;3.13;;
72517;SDS011;60540;51.178;6.738;2022-10-22T02:39:05;9.18;;;3.78;;
72517;SDS011;60540;51.178;6.738;2022-10-22T02:41:31;7.10;;;3.55;;
72517;SDS011;60540;51.178;6.738;2022-10-22T02:43:57;6.25;;;3.53;;
72517;SDS011;60540;51.178;6.738;2022-10-22T02:46:23;6.60;;;3.45;;
72517;SDS011;60540;51.178;6.738;2022-10-22T02:51:15;7.57;;;3.13;;
72517;SDS011;60540;51.178;6.738;2022-10-22T02:53:40;5.75;;;3.40;;
72517;SDS011;60540;51.178;6.738;2022-10-22T02:56:06;5.78;;;2.95;;
72517;SDS011;60540;51.178;6.738;2022-10-22T02:58:32;7.13;;;2.92;;
72517;SDS011;60540;51.178;6.738;2022-10-22T03:00:58;6.82;;;3.15;;
72517;SDS011;60540;51.178;6.738;2022-10-22T03:03:23;5.95;;;3.35;;
72517;SDS011;60540;51.178;6.738;2022-10-22T03:05:49;6.05;;;2.97;;
72517;SDS011;60540;51.178;6.738;2022-10-22T03:08:15;7.18;;;3.75;;
72517;SDS011;60540;51.178;6.738;2022-10-22T03:10:40;6.10;;;3.42;;
72517;SDS011;60540;51.178;6.738;2022-10-22T03:13:06;5.80;;;3.05;;
72517;SDS011;60540;51.178;6.738;2022-10-22T03:15:31;6.53;;;3.38;;
72517;SDS011;60540;51.178;6.738;2022-10-22T03:17:57;8.82;;;3.05;;
72517;SDS011;60540;51.178;6.738;2022-10-22T03:20:23;6.95;;;3.40;;
72517;SDS011;60540;51.178;6.738;2022-10-22T03:22:48;6.57;;;3.13;;
72517;SDS011;60540;51.178;6.738;2022-10-22T03:25:15;6.88;;;3.28;;
72517;SDS011;60540;51.178;6.738;2022-10-22T03:27:44;8.00;;;3.15;;
72517;SDS011;60540;51.178;6.738;2022-10-22T03:30:10;10.30;;;3.45;;
72517;SDS011;60540;51.178;6.738;2022-10-22T03:32:36;8.98;;;2.90;;
72517;SDS011;60540;51.178;6.738;2022-10-22T03:35:02;5.90;;;3.03;;
72517;SDS011;60540;51.178;6.738;2022-10-22T03:37:29;6.80;;;3.58;;
72517;SDS011;60540;51.178;6.738;2022-10-22T03:39:55;8.15;;;3.60;;
72517;SDS011;60540;51.178;6.738;2022-10-22T03:42:21;5.93;;;3.15;;
72517;SDS011;60540;51.178;6.738;2022-10-22T03:44:47;7.55;;;3.50;;
72517;SDS011;60540;51.178;6.738;2022-10-22T03:47:13;7.13;;;3.22;;
72517;SDS011;60540;51.178;6.738;2022-10-22T03:49:38;5.38;;;3.10;;
72517;SDS011;60540;51.178;6.738;2022-10-22T03:52:05;6.85;;;3.13;;
72517;SDS011;60540;51.178;6.738;2022-10-22T03:54:37;6.53;;;2.97;;
72517;SDS011;60540;51.178;6.738;2022-10-22T03:57:03;6.00;;;3.35;;
72517;SDS011;60540;51.178;6.738;2022-10-22T03:59:36;5.72;;;3.28;;
72517;SDS011;60540;51.178;6.738;2022-10-22T04:02:03;7.30;;;3.75;;
72517;SDS011;60540;51.178;6.738;2022-10-22T04:04:29;6.88;;;3.33;;
72517;SDS011;60540;51.178;6.738;2022-10-22T04:06:55;7.40;;;3.55;;
72517;SDS011;60540;51.178;6.738;2022-10-22T04:09:21;6.43;;;3.28;;
72517;SDS011;60540;51.178;6.738;2022-10-22T04:11:47;5.70;;;3.35;;
72517;SDS011;60540;51.178;6.738;2022-10-22T04:14:12;6.53;;;3.20;;
72517;SDS011;60540;51.178;6.738;2022-10-22T04:16:38;8.77;;;3.58;;
72517;SDS011;60540;51.178;6.738;2022-10-22T04:19:05;6.00;;;3.38;;
72517;SDS011;60540;51.178;6.738;2022-10-22T04:21:31;6.43;;;3.28;;
72517;SDS011;60540;51.178;6.738;2022-10-22T04:23:56;6.55;;;3.13;;
72517;SDS011;60540;51.178;6.738;2022-10-22T04:26:22;8.30;;;3.55;;
72517;SDS011;60540;51.178;6.738;2022-10-22T04:28:48;8.38;;;3.33;;
72517;SDS011;60540;51.178;6.738;2022-10-22T04:31:16;8.40;;;3.30;;
72517;SDS011;60540;51.178;6.738;2022-10-22T04:33:43;10.68;;;3.25;;
72517;SDS011;60540;51.178;6.738;2022-10-22T04:36:09;7.25;;;4.13;;
72517;SDS011;60540;51.178;6.738;2022-10-22T04:38:37;4.70;;;3.13;;
72517;SDS011;60540;51.178;6.738;2022-10-22T04:43:48;5.93;;;3.40;;
72517;SDS011;60540;51.178;6.738;2022-10-22T04:46:14;9.20;;;3.72;;
72517;SDS011;60540;51.178;6.738;2022-10-22T04:48:41;6.05;;;3.38;;
72517;SDS011;60540;51.178;6.738;2022-10-22T04:53:33;7.32;;;3.38;;
72517;SDS011;60540;51.178;6.738;2022-10-22T04:56:06;8.60;;;3.72;;
72517;SDS011;60540;51.178;6.738;2022-10-22T04:58:33;7.15;;;3.55;;
72517;SDS011;60540;51.178;6.738;2022-10-22T05:00:59;6.75;;;3.08;;
72517;SDS011;60540;51.178;6.738;2022-10-22T05:03:24;7.40;;;4.10;;
72517;SDS011;60540;51.178;6.738;2022-10-22T05:05:50;9.00;;;3.60;;
72517;SDS011;60540;51.178;6.738;2022-10-22T05:08:15;7.30;;;3.25;;
72517;SDS011;60540;51.178;6.738;2022-10-22T05:10:41;8.65;;;4.00;;
72517;SDS011;60540;51.178;6.738;2022-10-22T05:13:06;9.85;;;3.50;;
72517;SDS011;60540;51.178;6.738;2022-10-22T05:15:32;7.88;;;3.50;;
72517;SDS011;60540;51.178;6.738;2022-10-22T05:17:58;7.15;;;3.58;;
72517;SDS011;60540;51.178;6.738;2022-10-22T05:20:23;7.32;;;3.75;;
72517;SDS011;60540;51.178;6.738;2022-10-22T05:22:49;6.00;;;3.38;;
72517;SDS011;60540;51.178;6.738;2022-10-22T05:25:14;7.05;;;3.50;;
72517;SDS011;60540;51.178;6.738;2022-10-22T05:27:40;7.97;;;3.58;;
72517;SDS011;60540;51.178;6.738;2022-10-22T05:30:06;6.85;;;3.88;;
72517;SDS011;60540;51.178;6.738;2022-10-22T05:32:33;13.20;;;3.72;;
72517;SDS011;60540;51.178;6.738;2022-10-22T05:34:59;7.07;;;3.63;;
72517;SDS011;60540;51.178;6.738;2022-10-22T05:37:24;7.70;;;3.60;;
72517;SDS011;60540;51.178;6.738;2022-10-22T05:39:50;7.20;;;3.83;;
72517;SDS011;60540;51.178;6.738;2022-10-22T05:42:15;6.40;;;3.60;;
72517;SDS011;60540;51.178;6.738;2022-10-22T05:44:41;6.95;;;3.63;;
72517;SDS011;60540;51.178;6.738;2022-10-22T05:47:06;8.05;;;4.03;;
72517;SDS011;60540;51.178;6.738;2022-10-22T05:49:32;7.53;;;3.50;;
72517;SDS011;60540;51.178;6.738;2022-10-22T05:51:57;8.77;;;3.63;;
72517;SDS011;60540;51.178;6.738;2022-10-22T05:54:23;10.68;;;3.75;;
72517;SDS011;60540;51.178;6.738;2022-10-22T05:56:49;12.23;;;5.35;;
72517;SDS011;60540;51.178;6.738;2022-10-22T05:59:14;7.57;;;4.13;;
72517;SDS011;60540;51.178;6.738;2022-10-22T06:01:40;8.88;;;3.80;;
72517;SDS011;60540;51.178;6.738;2022-10-22T06:04:07;7.43;;;3.80;;
72517;SDS011;60540;51.178;6.738;2022-10-22T06:06:38;7.72;;;3.72;;
72517;SDS011;60540;51.178;6.738;2022-10-22T06:09:10;7.53;;;4.05;;
72517;SDS011;60540;51.178;6.738;2022-10-22T06:11:38;11.75;;;4.88;;
72517;SDS011;60540;51.178;6.738;2022-10-22T06:14:04;7.47;;;4.07;;
72517;SDS011;60540;51.178;6.738;2022-10-22T06:16:30;7.78;;;3.80;;
72517;SDS011;60540;51.178;6.738;2022-10-22T06:18:57;9.15;;;3.90;;
72517;SDS011;60540;51.178;6.738;2022-10-22T06:21:23;10.73;;;4.25;;
72517;SDS011;60540;51.178;6.738;2022-10-22T06:23:49;7.75;;;4.03;;
72517;SDS011;60540;51.178;6.738;2022-10-22T06:26:14;7.65;;;4.07;;
72517;SDS011;60540;51.178;6.738;2022-10-22T06:28:42;7.55;;;3.67;;
72517;SDS011;60540;51.178;6.738;2022-10-22T06:31:08;9.18;;;3.90;;
72517;SDS011;60540;51.178;6.738;2022-10-22T06:33:34;9.30;;;4.10;;
72517;SDS011;60540;51.178;6.738;2022-10-22T06:36:07;9.63;;;3.85;;
72517;SDS011;60540;51.178;6.738;2022-10-22T06:38:37;9.38;;;3.70;;
72517;SDS011;60540;51.178;6.738;2022-10-22T06:41:04;7.45;;;3.80;;
72517;SDS011;60540;51.178;6.738;2022-10-22T06:43:34;7.13;;;3.78;;
72517;SDS011;60540;51.178;6.738;2022-10-22T06:46:00;9.43;;;4.03;;
72517;SDS011;60540;51.178;6.738;2022-10-22T06:48:26;10.30;;;4.10;;
72517;SDS011;60540;51.178;6.738;2022-10-22T06:50:52;10.32;;;3.90;;
72517;SDS011;60540;51.178;6.738;2022-10-22T06:53:17;9.73;;;3.75;;
72517;SDS011;60540;51.178;6.738;2022-10-22T06:55:43;10.75;;;4.32;;
72517;SDS011;60540;51.178;6.738;2022-10-22T06:58:08;6.70;;;3.72;;
72517;SDS011;60540;51.178;6.738;2022-10-22T07:00:34;7.05;;;3.55;;
72517;SDS011;60540;51.178;6.738;2022-10-22T07:02:59;6.00;;;3.75;;
72517;SDS011;60540;51.178;6.738;2022-10-22T07:05:25;18.42;;;6.57;;
72517;SDS011;60540;51.178;6.738;2022-10-22T07:07:50;6.63;;;3.65;;
72517;SDS011;60540;51.178;6.738;2022-10-22T07:10:16;8.70;;;4.40;;
72517;SDS011;60540;51.178;6.738;2022-10-22T07:12:41;7.35;;;3.25;;
72517;SDS011;60540;51.178;6.738;2022-10-22T07:15:07;7.38;;;3.88;;
72517;SDS011;60540;51.178;6.738;2022-10-22T07:17:33;7.45;;;3.95;;
72517;SDS011;60540;51.178;6.738;2022-10-22T07:19:58;6.95;;;3.70;;
72517;SDS011;60540;51.178;6.738;2022-10-22T07:22:24;7.10;;;3.63;;
72517;SDS011;60540;51.178;6.738;2022-10-22T07:24:49;6.78;;;3.67;;
72517;SDS011;60540;51.178;6.738;2022-10-22T07:27:15;7.22;;;3.28;;
72517;SDS011;60540;51.178;6.738;2022-10-22T07:29:40;8.23;;;3.33;;
72517;SDS011;60540;51.178;6.738;2022-10-22T07:32:06;7.97;;;3.42;;
72517;SDS011;60540;51.178;6.738;2022-10-22T07:34:32;6.78;;;3.47;;
72517;SDS011;60540;51.178;6.738;2022-10-22T07:36:58;6.60;;;3.08;;
72517;SDS011;60540;51.178;6.738;2022-10-22T07:39:23;14.07;;;5.28;;
72517;SDS011;60540;51.178;6.738;2022-10-22T07:41:50;7.78;;;3.75;;
72517;SDS011;60540;51.178;6.738;2022-10-22T07:44:16;6.60;;;3.30;;
72517;SDS011;60540;51.178;6.738;2022-10-22T07:46:41;5.82;;;3.40;;
72517;SDS011;60540;51.178;6.738;2022-10-22T07:49:07;8.15;;;3.47;;
72517;SDS011;60540;51.178;6.738;2022-10-22T07:51:32;8.38;;;3.22;;
72517;SDS011;60540;51.178;6.738;2022-10-22T07:53:58;8.10;;;3.60;;
72517;SDS011;60540;51.178;6.738;2022-10-22T07:56:23;8.02;;;3.60;;
72517;SDS011;60540;51.178;6.738;2022-10-22T07:58:49;7.18;;;2.92;;
72517;SDS011;60540;51.178;6.738;2022-10-22T08:01:15;7.53;;;3.33;;
72517;SDS011;60540;51.178;6.738;2022-10-22T08:03:41;8.70;;;3.10;;
72517;SDS011;60540;51.178;6.738;2022-10-22T08:06:07;7.50;;;3.30;;
72517;SDS011;60540;51.178;6.738;2022-10-22T08:08:33;9.27;;;3.63;;
72517;SDS011;60540;51.178;6.738;2022-10-22T08:10:59;6.88;;;3.20;;
72517;SDS011;60540;51.178;6.738;2022-10-22T08:13:25;9.25;;;3.08;;
72517;SDS011;60540;51.178;6.738;2022-10-22T08:15:55;7.22;;;3.10;;
72517;SDS011;60540;51.178;6.738;2022-10-22T08:18:21;7.13;;;2.88;;
72517;SDS011;60540;51.178;6.738;2022-10-22T08:20:47;7.03;;;2.90;;
72517;SDS011;60540;51.178;6.738;2022-10-22T08:23:12;5.43;;;2.58;;
72517;SDS011;60540;51.178;6.738;2022-10-22T08:25:38;7.22;;;2.75;;
72517;SDS011;60540;51.178;6.738;2022-10-22T08:28:04;6.13;;;2.58;;
72517;SDS011;60540;51.178;6.738;2022-10-22T08:30:29;8.55;;;2.97;;
72517;SDS011;60540;51.178;6.738;2022-10-22T08:32:55;5.85;;;2.75;;
72517;SDS011;60540;51.178;6.738;2022-10-22T08:35:21;7.57;;;2.40;;
72517;SDS011;60540;51.178;6.738;2022-10-22T08:37:46;4.57;;;1.95;;
72517;SDS011;60540;51.178;6.738;2022-10-22T08:40:20;7.05;;;2.20;;
72517;SDS011;60540;51.178;6.738;2022-10-22T08:45:43;5.53;;;1.67;;
72517;SDS011;60540;51.178;6.738;2022-10-22T08:48:19;6.50;;;1.70;;
72517;SDS011;60540;51.178;6.738;2022-10-22T08:50:55;6.43;;;1.63;;
72517;SDS011;60540;51.178;6.738;2022-10-22T08:53:22;5.13;;;1.80;;
72517;SDS011;60540;51.178;6.738;2022-10-22T08:55:55;6.78;;;1.98;;
72517;SDS011;60540;51.178;6.738;2022-10-22T09:01:13;4.90;;;2.53;;
72517;SDS011;60540;51.178;6.738;2022-10-22T09:03:45;7.05;;;1.50;;
72517;SDS011;60540;51.178;6.738;2022-10-22T09:08:46;7.68;;;1.75;;
72517;SDS011;60540;51.178;6.738;2022-10-22T09:11:15;7.20;;;1.88;;
72517;SDS011;60540;51.178;6.738;2022-10-22T09:13:42;3.15;;;1.10;;
72517;SDS011;60540;51.178;6.738;2022-10-22T09:16:13;6.97;;;2.35;;
72517;SDS011;60540;51.178;6.738;2022-10-22T09:21:42;5.45;;;1.70;;
72517;SDS011;60540;51.178;6.738;2022-10-22T09:24:28;5.38;;;1.38;;
72517;SDS011;60540;51.178;6.738;2022-10-22T09:26:58;4.22;;;1.30;;
72517;SDS011;60540;51.178;6.738;2022-10-22T09:29:28;3.72;;;1.40;;
72517;SDS011;60540;51.178;6.738;2022-10-22T09:31:56;5.28;;;1.30;;
72517;SDS011;60540;51.178;6.738;2022-10-22T09:34:22;5.40;;;1.45;;
72517;SDS011;60540;51.178;6.738;2022-10-22T09:36:56;6.78;;;1.20;;
72517;SDS011;60540;51.178;6.738;2022-10-22T09:39:26;4.47;;;1.30;;
72517;SDS011;60540;51.178;6.738;2022-10-22T09:41:59;4.68;;;1.70;;
72517;SDS011;60540;51.178;6.738;2022-10-22T09:44:24;5.20;;;1.48;;
72517;SDS011;60540;51.178;6.738;2022-10-22T09:46:50;6.35;;;1.35;;
72517;SDS011;60540;51.178;6.738;2022-10-22T09:49:17;4.72;;;1.40;;
72517;SDS011;60540;51.178;6.738;2022-10-22T09:51:47;4.60;;;1.60;;
72517;SDS011;60540;51.178;6.738;2022-10-22T09:54:24;5.13;;;1.35;;
72517;SDS011;60540;51.178;6.738;2022-10-22T09:56:52;5.40;;;1.58;;
72517;SDS011;60540;51.178;6.738;2022-10-22T09:59:23;3.45;;;1.20;;
72517;SDS011;60540;51.178;6.738;2022-10-22T10:01:58;6.28;;;1.90;;
72517;SDS011;60540;51.178;6.738;2022-10-22T10:04:25;5.95;;;1.70;;
72517;SDS011;60540;51.178;6.738;2022-10-22T10:06:52;7.93;;;1.48;;
72517;SDS011;60540;51.178;6.738;2022-10-22T10:09:21;4.70;;;1.50;;
72517;SDS011;60540;51.178;6.738;2022-10-22T10:12:00;4.00;;;1.15;;
72517;SDS011;60540;51.178;6.738;2022-10-22T10:25:41;3.55;;;1.20;;
72517;SDS011;60540;51.178;6.738;2022-10-22T10:31:26;6.13;;;1.40;;
72517;SDS011;60540;51.178;6.738;2022-10-22T10:36:52;3.80;;;0.98;;
72517;SDS011;60540;51.178;6.738;2022-10-22T10:42:19;3.78;;;0.98;;
72517;SDS011;60540;51.178;6.738;2022-10-22T10:50:42;3.95;;;1.52;;
72517;SDS011;60540;51.178;6.738;2022-10-22T10:58:57;4.97;;;1.20;;
72517;SDS011;60540;51.178;6.738;2022-10-22T11:07:46;4.05;;;1.00;;
72517;SDS011;60540;51.178;6.738;2022-10-22T11:10:26;3.70;;;1.00;;
72517;SDS011;60540;51.178;6.738;2022-10-22T11:13:17;2.75;;;0.90;;
72517;SDS011;60540;51.178;6.738;2022-10-22T11:19:00;3.25;;;1.10;;
72517;SDS011;60540;51.178;6.738;2022-10-22T11:24:24;5.45;;;1.48;;
72517;SDS011;60540;51.178;6.738;2022-10-22T11:26:54;5.20;;;1.25;;
72517;SDS011;60540;51.178;6.738;2022-10-22T11:29:23;2.88;;;0.90;;
72517;SDS011;60540;51.178;6.738;2022-10-22T11:31:52;3.00;;;1.00;;
72517;SDS011;60540;51.178;6.738;2022-10-22T11:37:11;3.45;;;0.98;;
72517;SDS011;60540;51.178;6.738;2022-10-22T11:39:50;2.90;;;0.95;;
72517;SDS011;60540;51.178;6.738;2022-10-22T11:42:36;4.63;;;1.30;;
72517;SDS011;60540;51.178;6.738;2022-10-22T11:47:51;3.22;;;0.80;;
72517;SDS011;60540;51.178;6.738;2022-10-22T11:50:27;3.10;;;0.90;;
72517;SDS011;60540;51.178;6.738;2022-10-22T12:03:40;4.80;;;1.10;;
72517;SDS011;60540;51.178;6.738;2022-10-22T12:08:42;3.38;;;1.20;;
72517;SDS011;60540;51.178;6.738;2022-10-22T12:16:34;5.07;;;0.80;;
72517;SDS011;60540;51.178;6.738;2022-10-22T12:21:47;3.05;;;0.77;;
72517;SDS011;60540;51.178;6.738;2022-10-22T12:24:16;3.28;;;0.88;;
72517;SDS011;60540;51.178;6.738;2022-10-22T12:26:44;4.93;;;1.08;;
72517;SDS011;60540;51.178;6.738;2022-10-22T12:29:12;4.18;;;0.80;;
72517;SDS011;60540;51.178;6.738;2022-10-22T12:31:40;3.72;;;1.02;;
72517;SDS011;60540;51.178;6.738;2022-10-22T12:34:10;2.45;;;1.00;;
72517;SDS011;60540;51.178;6.738;2022-10-22T12:36:38;5.20;;;1.02;;
72517;SDS011;60540;51.178;6.738;2022-10-22T12:39:08;2.85;;;0.90;;
72517;SDS011;60540;51.178;6.738;2022-10-22T12:41:38;2.55;;;1.30;;
72517;SDS011;60540;51.178;6.738;2022-10-22T12:44:04;3.53;;;0.80;;
72517;SDS011;60540;51.178;6.738;2022-10-22T12:46:31;4.82;;;1.30;;
72517;SDS011;60540;51.178;6.738;2022-10-22T12:48:59;3.45;;;0.95;;
72517;SDS011;60540;51.178;6.738;2022-10-22T12:51:36;2.13;;;0.88;;
72517;SDS011;60540;51.178;6.738;2022-10-22T12:54:09;2.92;;;0.95;;
72517;SDS011;60540;51.178;6.738;2022-10-22T13:01:48;4.70;;;1.13;;
72517;SDS011;60540;51.178;6.738;2022-10-22T13:04:22;4.82;;;0.88;;
72517;SDS011;60540;51.178;6.738;2022-10-22T13:07:17;2.00;;;0.70;;
72517;SDS011;60540;51.178;6.738;2022-10-22T13:09:44;2.17;;;0.73;;
72517;SDS011;60540;51.178;6.738;2022-10-22T13:12:11;6.57;;;1.48;;
72517;SDS011;60540;51.178;6.738;2022-10-22T13:14:43;2.00;;;0.80;;
72517;SDS011;60540;51.178;6.738;2022-10-22T13:17:20;2.85;;;0.85;;
72517;SDS011;60540;51.178;6.738;2022-10-22T13:20:03;2.80;;;0.75;;
72517;SDS011;60540;51.178;6.738;2022-10-22T13:22:40;2.85;;;0.60;;
72517;SDS011;60540;51.178;6.738;2022-10-22T13:27:45;4.45;;;0.93;;
72517;SDS011;60540;51.178;6.738;2022-10-22T13:30:30;1.70;;;0.80;;
72517;SDS011;60540;51.178;6.738;2022-10-22T13:32:58;2.10;;;0.60;;
72517;SDS011;60540;51.178;6.738;2022-10-22T13:35:27;1.55;;;0.60;;
72517;SDS011;60540;51.178;6.738;2022-10-22T13:37:54;2.42;;;0.88;;
72517;SDS011;60540;51.178;6.738;2022-10-22T13:40:20;1.23;;;0.50;;
72517;SDS011;60540;51.178;6.738;2022-10-22T13:42:46;2.88;;;1.35;;
72517;SDS011;60540;51.178;6.738;2022-10-22T13:45:12;1.33;;;0.47;;
72517;SDS011;60540;51.178;6.738;2022-10-22T13:47:38;1.88;;;0.55;;
72517;SDS011;60540;51.178;6.738;2022-10-22T13:50:09;2.70;;;0.73;;
72517;SDS011;60540;51.178;6.738;2022-10-22T13:52:39;2.42;;;0.57;;
72517;SDS011;60540;51.178;6.738;2022-10-22T13:55:39;2.22;;;0.70;;
72517;SDS011;60540;51.178;6.738;2022-10-22T13:58:11;3.22;;;0.70;;
72517;SDS011;60540;51.178;6.738;2022-10-22T14:00:44;3.72;;;0.93;;
72517;SDS011;60540;51.178;6.738;2022-10-22T14:03:19;3.17;;;0.70;;
72517;SDS011;60540;51.178;6.738;2022-10-22T14:05:46;3.97;;;0.70;;
72517;SDS011;60540;51.178;6.738;2022-10-22T14:08:16;3.40;;;0.98;;
72517;SDS011;60540;51.178;6.738;2022-10-22T14:10:43;1.95;;;0.70;;
72517;SDS011;60540;51.178;6.738;2022-10-22T14:13:09;5.90;;;1.45;;
72517;SDS011;60540;51.178;6.738;2022-10-22T14:15:35;3.83;;;0.80;;
72517;SDS011;60540;51.178;6.738;2022-10-22T14:18:01;1.85;;;0.80;;
72517;SDS011;60540;51.178;6.738;2022-10-22T14:20:28;2.75;;;0.60;;
72517;SDS011;60540;51.178;6.738;2022-10-22T14:22:56;3.33;;;0.75;;
72517;SDS011;60540;51.178;6.738;2022-10-22T14:25:27;3.80;;;1.00;;
72517;SDS011;60540;51.178;6.738;2022-10-22T14:27:55;2.03;;;0.70;;
72517;SDS011;60540;51.178;6.738;2022-10-22T14:30:22;6.90;;;0.90;;
72517;SDS011;60540;51.178;6.738;2022-10-22T14:32:48;3.25;;;0.73;;
72517;SDS011;60540;51.178;6.738;2022-10-22T14:35:15;4.60;;;1.10;;
72517;SDS011;60540;51.178;6.738;2022-10-22T14:37:42;2.38;;;0.93;;
72517;SDS011;60540;51.178;6.738;2022-10-22T14:40:09;4.57;;;0.80;;
72517;SDS011;60540;51.178;6.738;2022-10-22T14:42:38;2.65;;;0.70;;
72517;SDS011;60540;51.178;6.738;2022-10-22T14:45:08;3.40;;;0.90;;
72517;SDS011;60540;51.178;6.738;2022-10-22T14:47:42;1.95;;;0.82;;
72517;SDS011;60540;51.178;6.738;2022-10-22T14:50:07;2.22;;;1.00;;
72517;SDS011;60540;51.178;6.738;2022-10-22T14:52:33;2.85;;;0.90;;
72517;SDS011;60540;51.178;6.738;2022-10-22T14:54:59;5.65;;;1.45;;
72517;SDS011;60540;51.178;6.738;2022-10-22T14:57:24;3.55;;;1.35;;
72517;SDS011;60540;51.178;6.738;2022-10-22T14:59:50;3.63;;;0.90;;
72517;SDS011;60540;51.178;6.738;2022-10-22T15:02:19;1.83;;;0.80;;
72517;SDS011;60540;51.178;6.738;2022-10-22T15:04:44;3.40;;;0.90;;
72517;SDS011;60540;51.178;6.738;2022-10-22T15:07:10;4.35;;;0.88;;
72517;SDS011;60540;51.178;6.738;2022-10-22T15:09:36;3.55;;;1.45;;
72517;SDS011;60540;51.178;6.738;2022-10-22T15:12:01;3.15;;;1.38;;
72517;SDS011;60540;51.178;6.738;2022-10-22T15:14:27;3.05;;;1.25;;
72517;SDS011;60540;51.178;6.738;2022-10-22T15:16:52;1.45;;;0.68;;
72517;SDS011;60540;51.178;6.738;2022-10-22T15:19:18;2.15;;;0.77;;
72517;SDS011;60540;51.178;6.738;2022-10-22T15:21:43;1.92;;;0.70;;
72517;SDS011;60540;51.178;6.738;2022-10-22T15:24:09;4.45;;;1.13;;
72517;SDS011;60540;51.178;6.738;2022-10-22T15:26:34;4.13;;;0.90;;
72517;SDS011;60540;51.178;6.738;2022-10-22T15:29:01;4.32;;;1.13;;
72517;SDS011;60540;51.178;6.738;2022-10-22T15:31:48;2.92;;;1.00;;
72517;SDS011;60540;51.178;6.738;2022-10-22T15:34:17;5.60;;;1.48;;
72517;SDS011;60540;51.178;6.738;2022-10-22T15:36:46;4.63;;;1.42;;
72517;SDS011;60540;51.178;6.738;2022-10-22T15:39:12;3.17;;;1.30;;
72517;SDS011;60540;51.178;6.738;2022-10-22T15:41:38;3.03;;;1.05;;
72517;SDS011;60540;51.178;6.738;2022-10-22T15:44:03;5.35;;;1.35;;
72517;SDS011;60540;51.178;6.738;2022-10-22T15:46:32;2.55;;;0.90;;
72517;SDS011;60540;51.178;6.738;2022-10-22T15:48:58;3.92;;;1.00;;
72517;SDS011;60540;51.178;6.738;2022-10-22T15:51:24;4.80;;;1.10;;
72517;SDS011;60540;51.178;6.738;2022-10-22T15:53:51;3.13;;;1.20;;
72517;SDS011;60540;51.178;6.738;2022-10-22T15:56:17;2.70;;;1.20;;
72517;SDS011;60540;51.178;6.738;2022-10-22T15:58:43;3.53;;;1.10;;
72517;SDS011;60540;51.178;6.738;2022-10-22T16:01:10;3.80;;;1.50;;
72517;SDS011;60540;51.178;6.738;2022-10-22T16:03:37;4.07;;;1.20;;
72517;SDS011;60540;51.178;6.738;2022-10-22T16:06:03;5.03;;;1.67;;
72517;SDS011;60540;51.178;6.738;2022-10-22T16:08:29;3.70;;;1.40;;
72517;SDS011;60540;51.178;6.738;2022-10-22T16:10:55;5.35;;;1.50;;
72517;SDS011;60540;51.178;6.738;2022-10-22T16:13:20;5.47;;;1.55;;
72517;SDS011;60540;51.178;6.738;2022-10-22T16:15:48;9.18;;;1.90;;
72517;SDS011;60540;51.178;6.738;2022-10-22T16:18:14;4.43;;;1.98;;
72517;SDS011;60540;51.178;6.738;2022-10-22T16:20:40;4.78;;;1.35;;
72517;SDS011;60540;51.178;6.738;2022-10-22T16:23:05;4.55;;;1.33;;
72517;SDS011;60540;51.178;6.738;2022-10-22T16:25:38;4.22;;;1.38;;
72517;SDS011;60540;51.178;6.738;2022-10-22T16:28:07;4.80;;;2.05;;
72517;SDS011;60540;51.178;6.738;2022-10-22T16:30:33;3.50;;;1.60;;
72517;SDS011;60540;51.178;6.738;2022-10-22T16:33:00;4.93;;;1.35;;
72517;SDS011;60540;51.178;6.738;2022-10-22T16:35:26;6.68;;;1.55;;
72517;SDS011;60540;51.178;6.738;2022-10-22T16:37:52;5.38;;;1.52;;
72517;SDS011;60540;51.178;6.738;2022-10-22T16:40:18;6.93;;;1.73;;
72517;SDS011;60540;51.178;6.738;2022-10-22T16:42:43;4.53;;;1.83;;
72517;SDS011;60540;51.178;6.738;2022-10-22T16:45:09;4.18;;;1.50;;
72517;SDS011;60540;51.178;6.738;2022-10-22T16:50:01;4.70;;;1.48;;
72517;SDS011;60540;51.178;6.738;2022-10-22T16:52:27;3.97;;;1.80;;
72517;SDS011;60540;51.178;6.738;2022-10-22T16:54:52;3.85;;;1.40;;